sensor_id;sensor_type;location;lat;lon;timestamp;P1;durP1;ratioP1;P2;durP2;ratioP2
59880;SDS011;45751;51.380;10.326;2024-03-08T00:01:09;16.25;;;7.22;;
59880;SDS011;45751;51.380;10.326;2024-03-08T00:03:35;22.52;;;9.65;;
59880;SDS011;45751;51.380;10.326;2024-03-08T00:06:01;14.25;;;6.15;;
59880;SDS011;45751;51.380;10.326;2024-03-08T00:08:27;16.08;;;7.43;;
59880;SDS011;45751;51.380;10.326;2024-03-08T00:10:53;15.00;;;8.10;;
59880;SDS011;45751;51.380;10.326;2024-03-08T00:13:19;16.35;;;7.97;;
59880;SDS011;45751;51.380;10.326;2024-03-08T00:15:45;16.40;;;6.75;;
59880;SDS011;45751;51.380;10.326;2024-03-08T00:18:10;17.98;;;7.95;;
59880;SDS011;45751;51.380;10.326;2024-03-08T00:20:36;20.30;;;8.65;;
59880;SDS011;45751;51.380;10.326;2024-03-08T00:23:02;12.27;;;6.93;;
59880;SDS011;45751;51.380;10.326;2024-03-08T00:25:28;21.35;;;8.80;;
59880;SDS011;45751;51.380;10.326;2024-03-08T00:27:54;19.58;;;8.40;;
59880;SDS011;45751;51.380;10.326;2024-03-08T00:30:23;18.13;;;8.00;;
59880;SDS011;45751;51.380;10.326;2024-03-08T00:32:50;16.98;;;7.68;;
59880;SDS011;45751;51.380;10.326;2024-03-08T00:35:16;17.35;;;7.68;;
59880;SDS011;45751;51.380;10.326;2024-03-08T00:37:41;14.45;;;6.93;;
59880;SDS011;45751;51.380;10.326;2024-03-08T00:40:08;19.10;;;7.68;;
59880;SDS011;45751;51.380;10.326;2024-03-08T00:42:36;15.75;;;6.53;;
59880;SDS011;45751;51.380;10.326;2024-03-08T00:45:04;17.27;;;7.63;;
59880;SDS011;45751;51.380;10.326;2024-03-08T00:47:30;17.55;;;7.50;;
59880;SDS011;45751;51.380;10.326;2024-03-08T00:49:55;17.70;;;9.48;;
59880;SDS011;45751;51.380;10.326;2024-03-08T00:52:22;17.10;;;7.80;;
59880;SDS011;45751;51.380;10.326;2024-03-08T00:54:49;14.68;;;8.10;;
59880;SDS011;45751;51.380;10.326;2024-03-08T00:57:15;16.25;;;9.98;;
59880;SDS011;45751;51.380;10.326;2024-03-08T00:59:41;18.90;;;9.00;;
59880;SDS011;45751;51.380;10.326;2024-03-08T01:02:07;18.73;;;7.97;;
59880;SDS011;45751;51.380;10.326;2024-03-08T01:04:34;18.85;;;7.55;;
59880;SDS011;45751;51.380;10.326;2024-03-08T01:07:00;15.50;;;8.73;;
59880;SDS011;45751;51.380;10.326;2024-03-08T01:09:26;16.55;;;7.78;;
59880;SDS011;45751;51.380;10.326;2024-03-08T01:11:55;16.42;;;7.70;;
59880;SDS011;45751;51.380;10.326;2024-03-08T01:14:24;18.40;;;9.18;;
59880;SDS011;45751;51.380;10.326;2024-03-08T01:16:54;16.23;;;6.70;;
59880;SDS011;45751;51.380;10.326;2024-03-08T01:19:20;14.73;;;7.10;;
59880;SDS011;45751;51.380;10.326;2024-03-08T01:21:46;17.83;;;7.65;;
59880;SDS011;45751;51.380;10.326;2024-03-08T01:24:11;20.63;;;8.55;;
59880;SDS011;45751;51.380;10.326;2024-03-08T01:26:37;19.60;;;8.02;;
59880;SDS011;45751;51.380;10.326;2024-03-08T01:29:03;17.98;;;7.32;;
59880;SDS011;45751;51.380;10.326;2024-03-08T01:31:29;15.25;;;5.93;;
59880;SDS011;45751;51.380;10.326;2024-03-08T01:33:56;15.07;;;6.68;;
59880;SDS011;45751;51.380;10.326;2024-03-08T01:36:22;12.32;;;6.40;;
59880;SDS011;45751;51.380;10.326;2024-03-08T01:38:48;19.13;;;7.80;;
59880;SDS011;45751;51.380;10.326;2024-03-08T01:41:14;21.40;;;8.10;;
59880;SDS011;45751;51.380;10.326;2024-03-08T01:43:42;16.27;;;7.05;;
59880;SDS011;45751;51.380;10.326;2024-03-08T01:46:09;15.38;;;6.93;;
59880;SDS011;45751;51.380;10.326;2024-03-08T01:48:38;14.75;;;8.32;;
59880;SDS011;45751;51.380;10.326;2024-03-08T01:51:04;11.05;;;5.57;;
59880;SDS011;45751;51.380;10.326;2024-03-08T01:53:30;17.55;;;7.47;;
59880;SDS011;45751;51.380;10.326;2024-03-08T01:55:58;14.85;;;7.78;;
59880;SDS011;45751;51.380;10.326;2024-03-08T01:58:25;14.40;;;6.72;;
59880;SDS011;45751;51.380;10.326;2024-03-08T02:00:53;19.48;;;9.02;;
59880;SDS011;45751;51.380;10.326;2024-03-08T02:03:21;14.48;;;7.20;;
59880;SDS011;45751;51.380;10.326;2024-03-08T02:05:47;17.13;;;7.18;;
59880;SDS011;45751;51.380;10.326;2024-03-08T02:08:14;16.55;;;7.10;;
59880;SDS011;45751;51.380;10.326;2024-03-08T02:10:46;15.82;;;7.32;;
59880;SDS011;45751;51.380;10.326;2024-03-08T02:13:12;16.33;;;8.00;;
59880;SDS011;45751;51.380;10.326;2024-03-08T02:15:57;17.85;;;8.25;;
59880;SDS011;45751;51.380;10.326;2024-03-08T02:18:28;16.20;;;8.77;;
59880;SDS011;45751;51.380;10.326;2024-03-08T02:21:01;15.63;;;8.32;;
59880;SDS011;45751;51.380;10.326;2024-03-08T02:23:27;15.38;;;6.80;;
59880;SDS011;45751;51.380;10.326;2024-03-08T02:25:54;17.90;;;7.07;;
59880;SDS011;45751;51.380;10.326;2024-03-08T02:28:21;18.40;;;9.00;;
59880;SDS011;45751;51.380;10.326;2024-03-08T02:30:48;13.55;;;5.30;;
59880;SDS011;45751;51.380;10.326;2024-03-08T02:33:16;16.08;;;7.55;;
59880;SDS011;45751;51.380;10.326;2024-03-08T02:35:46;16.92;;;8.05;;
59880;SDS011;45751;51.380;10.326;2024-03-08T02:38:16;16.08;;;8.02;;
59880;SDS011;45751;51.380;10.326;2024-03-08T02:40:46;21.08;;;8.98;;
59880;SDS011;45751;51.380;10.326;2024-03-08T02:43:13;19.60;;;8.55;;
59880;SDS011;45751;51.380;10.326;2024-03-08T02:45:39;18.33;;;8.32;;
59880;SDS011;45751;51.380;10.326;2024-03-08T02:48:07;16.25;;;8.70;;
59880;SDS011;45751;51.380;10.326;2024-03-08T02:50:33;15.25;;;7.45;;
59880;SDS011;45751;51.380;10.326;2024-03-08T02:53:02;17.23;;;8.93;;
59880;SDS011;45751;51.380;10.326;2024-03-08T02:55:29;14.95;;;5.70;;
59880;SDS011;45751;51.380;10.326;2024-03-08T02:57:55;16.85;;;8.27;;
59880;SDS011;45751;51.380;10.326;2024-03-08T03:00:22;16.65;;;6.68;;
59880;SDS011;45751;51.380;10.326;2024-03-08T03:02:51;15.07;;;6.28;;
59880;SDS011;45751;51.380;10.326;2024-03-08T03:05:21;15.18;;;7.00;;
59880;SDS011;45751;51.380;10.326;2024-03-08T03:07:48;16.77;;;8.52;;
59880;SDS011;45751;51.380;10.326;2024-03-08T03:10:14;19.60;;;7.68;;
59880;SDS011;45751;51.380;10.326;2024-03-08T03:12:42;19.85;;;8.75;;
59880;SDS011;45751;51.380;10.326;2024-03-08T03:15:08;14.52;;;7.25;;
59880;SDS011;45751;51.380;10.326;2024-03-08T03:17:35;14.15;;;7.78;;
59880;SDS011;45751;51.380;10.326;2024-03-08T03:20:01;19.15;;;8.80;;
59880;SDS011;45751;51.380;10.326;2024-03-08T03:22:39;15.48;;;8.43;;
59880;SDS011;45751;51.380;10.326;2024-03-08T03:25:12;13.27;;;6.93;;
59880;SDS011;45751;51.380;10.326;2024-03-08T03:27:38;18.48;;;6.82;;
59880;SDS011;45751;51.380;10.326;2024-03-08T03:30:05;16.02;;;6.75;;
59880;SDS011;45751;51.380;10.326;2024-03-08T03:32:47;14.48;;;6.97;;
59880;SDS011;45751;51.380;10.326;2024-03-08T03:35:20;16.38;;;7.40;;
59880;SDS011;45751;51.380;10.326;2024-03-08T03:37:46;16.85;;;7.03;;
59880;SDS011;45751;51.380;10.326;2024-03-08T03:40:31;15.43;;;6.30;;
59880;SDS011;45751;51.380;10.326;2024-03-08T03:43:01;15.93;;;8.32;;
59880;SDS011;45751;51.380;10.326;2024-03-08T03:45:28;13.52;;;6.85;;
59880;SDS011;45751;51.380;10.326;2024-03-08T03:47:54;13.40;;;6.20;;
59880;SDS011;45751;51.380;10.326;2024-03-08T03:50:20;15.45;;;8.32;;
59880;SDS011;45751;51.380;10.326;2024-03-08T03:52:47;15.90;;;8.50;;
59880;SDS011;45751;51.380;10.326;2024-03-08T03:55:13;11.75;;;6.60;;
59880;SDS011;45751;51.380;10.326;2024-03-08T03:57:40;13.48;;;5.90;;
59880;SDS011;45751;51.380;10.326;2024-03-08T04:00:06;16.52;;;7.88;;
59880;SDS011;45751;51.380;10.326;2024-03-08T04:02:39;17.92;;;7.85;;
59880;SDS011;45751;51.380;10.326;2024-03-08T04:05:06;16.30;;;6.97;;
59880;SDS011;45751;51.380;10.326;2024-03-08T04:07:33;16.00;;;6.40;;
59880;SDS011;45751;51.380;10.326;2024-03-08T04:10:00;17.08;;;6.47;;
59880;SDS011;45751;51.380;10.326;2024-03-08T04:12:26;15.95;;;8.40;;
59880;SDS011;45751;51.380;10.326;2024-03-08T04:14:54;16.23;;;6.90;;
59880;SDS011;45751;51.380;10.326;2024-03-08T04:17:20;17.30;;;7.65;;
59880;SDS011;45751;51.380;10.326;2024-03-08T04:19:46;19.90;;;6.88;;
59880;SDS011;45751;51.380;10.326;2024-03-08T04:22:13;22.90;;;8.77;;
59880;SDS011;45751;51.380;10.326;2024-03-08T04:24:39;13.23;;;7.20;;
59880;SDS011;45751;51.380;10.326;2024-03-08T04:27:06;14.00;;;6.82;;
59880;SDS011;45751;51.380;10.326;2024-03-08T04:29:32;15.70;;;6.82;;
59880;SDS011;45751;51.380;10.326;2024-03-08T04:31:59;18.23;;;9.90;;
59880;SDS011;45751;51.380;10.326;2024-03-08T04:34:28;14.82;;;7.43;;
59880;SDS011;45751;51.380;10.326;2024-03-08T04:36:56;19.92;;;10.43;;
59880;SDS011;45751;51.380;10.326;2024-03-08T04:39:22;17.45;;;8.25;;
59880;SDS011;45751;51.380;10.326;2024-03-08T04:41:49;19.55;;;7.65;;
59880;SDS011;45751;51.380;10.326;2024-03-08T04:44:15;15.60;;;7.63;;
59880;SDS011;45751;51.380;10.326;2024-03-08T04:46:42;20.20;;;8.68;;
59880;SDS011;45751;51.380;10.326;2024-03-08T04:49:09;18.30;;;7.88;;
59880;SDS011;45751;51.380;10.326;2024-03-08T04:51:36;17.05;;;7.93;;
59880;SDS011;45751;51.380;10.326;2024-03-08T04:54:02;14.20;;;5.78;;
59880;SDS011;45751;51.380;10.326;2024-03-08T04:56:30;10.90;;;5.80;;
59880;SDS011;45751;51.380;10.326;2024-03-08T04:58:55;12.43;;;6.72;;
59880;SDS011;45751;51.380;10.326;2024-03-08T05:01:21;15.20;;;7.57;;
59880;SDS011;45751;51.380;10.326;2024-03-08T05:03:47;15.93;;;6.45;;
59880;SDS011;45751;51.380;10.326;2024-03-08T05:06:15;18.27;;;7.65;;
59880;SDS011;45751;51.380;10.326;2024-03-08T05:08:41;18.73;;;7.75;;
59880;SDS011;45751;51.380;10.326;2024-03-08T05:11:07;12.60;;;6.18;;
59880;SDS011;45751;51.380;10.326;2024-03-08T05:13:33;15.48;;;7.43;;
59880;SDS011;45751;51.380;10.326;2024-03-08T05:16:02;15.30;;;7.30;;
59880;SDS011;45751;51.380;10.326;2024-03-08T05:18:28;20.00;;;8.13;;
59880;SDS011;45751;51.380;10.326;2024-03-08T05:20:54;12.27;;;6.65;;
59880;SDS011;45751;51.380;10.326;2024-03-08T05:23:20;16.15;;;7.85;;
59880;SDS011;45751;51.380;10.326;2024-03-08T05:25:47;19.80;;;8.35;;
59880;SDS011;45751;51.380;10.326;2024-03-08T05:28:13;14.30;;;5.80;;
59880;SDS011;45751;51.380;10.326;2024-03-08T05:30:38;12.40;;;6.35;;
59880;SDS011;45751;51.380;10.326;2024-03-08T05:33:04;14.73;;;6.72;;
59880;SDS011;45751;51.380;10.326;2024-03-08T05:35:30;16.42;;;9.18;;
59880;SDS011;45751;51.380;10.326;2024-03-08T05:37:57;17.92;;;7.68;;
59880;SDS011;45751;51.380;10.326;2024-03-08T05:40:23;19.45;;;8.80;;
59880;SDS011;45751;51.380;10.326;2024-03-08T05:42:49;19.80;;;12.32;;
59880;SDS011;45751;51.380;10.326;2024-03-08T05:45:15;16.80;;;9.23;;
59880;SDS011;45751;51.380;10.326;2024-03-08T05:47:41;18.88;;;7.43;;
59880;SDS011;45751;51.380;10.326;2024-03-08T05:50:07;13.27;;;6.60;;
59880;SDS011;45751;51.380;10.326;2024-03-08T05:52:36;18.20;;;7.75;;
59880;SDS011;45751;51.380;10.326;2024-03-08T05:55:03;14.88;;;7.85;;
59880;SDS011;45751;51.380;10.326;2024-03-08T05:57:32;17.45;;;6.85;;
59880;SDS011;45751;51.380;10.326;2024-03-08T05:59:58;19.70;;;9.77;;
59880;SDS011;45751;51.380;10.326;2024-03-08T06:02:24;16.55;;;8.32;;
59880;SDS011;45751;51.380;10.326;2024-03-08T06:04:52;19.48;;;8.70;;
59880;SDS011;45751;51.380;10.326;2024-03-08T06:07:18;16.27;;;9.65;;
59880;SDS011;45751;51.380;10.326;2024-03-08T06:09:45;22.48;;;8.93;;
59880;SDS011;45751;51.380;10.326;2024-03-08T06:12:13;19.88;;;8.25;;
59880;SDS011;45751;51.380;10.326;2024-03-08T06:14:46;17.20;;;8.38;;
59880;SDS011;45751;51.380;10.326;2024-03-08T06:17:12;17.15;;;7.30;;
59880;SDS011;45751;51.380;10.326;2024-03-08T06:19:41;13.98;;;6.35;;
59880;SDS011;45751;51.380;10.326;2024-03-08T06:22:07;19.70;;;8.63;;
59880;SDS011;45751;51.380;10.326;2024-03-08T06:24:34;14.90;;;7.47;;
59880;SDS011;45751;51.380;10.326;2024-03-08T06:27:02;16.25;;;7.68;;
59880;SDS011;45751;51.380;10.326;2024-03-08T06:29:27;17.75;;;7.85;;
59880;SDS011;45751;51.380;10.326;2024-03-08T06:31:53;14.02;;;5.95;;
59880;SDS011;45751;51.380;10.326;2024-03-08T06:34:19;20.67;;;8.38;;
59880;SDS011;45751;51.380;10.326;2024-03-08T06:36:44;25.05;;;7.93;;
59880;SDS011;45751;51.380;10.326;2024-03-08T06:39:10;32.25;;;11.48;;
59880;SDS011;45751;51.380;10.326;2024-03-08T06:41:36;25.77;;;11.10;;
59880;SDS011;45751;51.380;10.326;2024-03-08T06:44:02;17.92;;;9.45;;
59880;SDS011;45751;51.380;10.326;2024-03-08T06:46:28;18.13;;;9.73;;
59880;SDS011;45751;51.380;10.326;2024-03-08T06:48:54;19.08;;;7.20;;
59880;SDS011;45751;51.380;10.326;2024-03-08T06:51:21;16.45;;;8.70;;
59880;SDS011;45751;51.380;10.326;2024-03-08T06:53:46;16.17;;;9.25;;
59880;SDS011;45751;51.380;10.326;2024-03-08T06:56:14;17.63;;;7.68;;
59880;SDS011;45751;51.380;10.326;2024-03-08T06:58:40;24.77;;;10.25;;
59880;SDS011;45751;51.380;10.326;2024-03-08T07:01:07;19.35;;;8.15;;
59880;SDS011;45751;51.380;10.326;2024-03-08T07:03:40;15.10;;;8.40;;
59880;SDS011;45751;51.380;10.326;2024-03-08T07:06:10;14.68;;;7.97;;
59880;SDS011;45751;51.380;10.326;2024-03-08T07:08:36;15.98;;;7.05;;
59880;SDS011;45751;51.380;10.326;2024-03-08T07:11:01;18.98;;;10.20;;
59880;SDS011;45751;51.380;10.326;2024-03-08T07:13:28;20.05;;;7.90;;
59880;SDS011;45751;51.380;10.326;2024-03-08T07:15:54;16.10;;;8.65;;
59880;SDS011;45751;51.380;10.326;2024-03-08T07:18:20;17.83;;;9.15;;
59880;SDS011;45751;51.380;10.326;2024-03-08T07:20:47;27.92;;;11.43;;
59880;SDS011;45751;51.380;10.326;2024-03-08T07:23:14;21.35;;;7.95;;
59880;SDS011;45751;51.380;10.326;2024-03-08T07:26:00;20.05;;;9.15;;
59880;SDS011;45751;51.380;10.326;2024-03-08T07:28:26;19.73;;;8.43;;
59880;SDS011;45751;51.380;10.326;2024-03-08T07:30:52;20.85;;;8.05;;
59880;SDS011;45751;51.380;10.326;2024-03-08T07:33:27;14.80;;;8.23;;
59880;SDS011;45751;51.380;10.326;2024-03-08T07:35:52;16.27;;;7.32;;
59880;SDS011;45751;51.380;10.326;2024-03-08T07:38:18;22.67;;;9.63;;
59880;SDS011;45751;51.380;10.326;2024-03-08T07:40:46;18.90;;;8.93;;
59880;SDS011;45751;51.380;10.326;2024-03-08T07:43:13;18.15;;;8.43;;
59880;SDS011;45751;51.380;10.326;2024-03-08T07:45:39;19.60;;;10.02;;
59880;SDS011;45751;51.380;10.326;2024-03-08T07:48:05;23.88;;;10.10;;
59880;SDS011;45751;51.380;10.326;2024-03-08T07:50:38;21.80;;;9.73;;
59880;SDS011;45751;51.380;10.326;2024-03-08T07:53:05;20.50;;;10.15;;
59880;SDS011;45751;51.380;10.326;2024-03-08T07:55:32;19.25;;;9.65;;
59880;SDS011;45751;51.380;10.326;2024-03-08T07:57:59;20.25;;;9.75;;
59880;SDS011;45751;51.380;10.326;2024-03-08T08:00:25;19.38;;;9.35;;
59880;SDS011;45751;51.380;10.326;2024-03-08T08:02:52;27.83;;;10.93;;
59880;SDS011;45751;51.380;10.326;2024-03-08T08:05:18;21.45;;;7.70;;
59880;SDS011;45751;51.380;10.326;2024-03-08T08:07:45;22.15;;;9.35;;
59880;SDS011;45751;51.380;10.326;2024-03-08T08:10:12;15.90;;;8.68;;
59880;SDS011;45751;51.380;10.326;2024-03-08T08:12:43;23.80;;;9.45;;
59880;SDS011;45751;51.380;10.326;2024-03-08T08:15:10;24.55;;;8.98;;
59880;SDS011;45751;51.380;10.326;2024-03-08T08:17:37;23.00;;;10.15;;
59880;SDS011;45751;51.380;10.326;2024-03-08T08:20:04;21.08;;;11.75;;
59880;SDS011;45751;51.380;10.326;2024-03-08T08:22:30;18.88;;;9.73;;
59880;SDS011;45751;51.380;10.326;2024-03-08T08:24:56;25.35;;;10.85;;
59880;SDS011;45751;51.380;10.326;2024-03-08T08:27:22;23.88;;;9.77;;
59880;SDS011;45751;51.380;10.326;2024-03-08T08:29:48;17.95;;;9.90;;
59880;SDS011;45751;51.380;10.326;2024-03-08T08:32:15;21.05;;;9.18;;
59880;SDS011;45751;51.380;10.326;2024-03-08T08:34:40;22.08;;;10.20;;
59880;SDS011;45751;51.380;10.326;2024-03-08T08:37:07;19.40;;;9.18;;
59880;SDS011;45751;51.380;10.326;2024-03-08T08:39:35;19.83;;;9.05;;
59880;SDS011;45751;51.380;10.326;2024-03-08T08:42:00;21.02;;;11.00;;
59880;SDS011;45751;51.380;10.326;2024-03-08T08:44:28;23.15;;;10.60;;
59880;SDS011;45751;51.380;10.326;2024-03-08T08:46:53;27.13;;;10.38;;
59880;SDS011;45751;51.380;10.326;2024-03-08T08:49:19;18.08;;;8.35;;
59880;SDS011;45751;51.380;10.326;2024-03-08T08:51:49;15.80;;;8.10;;
59880;SDS011;45751;51.380;10.326;2024-03-08T08:54:15;22.50;;;9.27;;
59880;SDS011;45751;51.380;10.326;2024-03-08T08:56:42;25.88;;;11.07;;
59880;SDS011;45751;51.380;10.326;2024-03-08T08:59:12;18.58;;;8.60;;
59880;SDS011;45751;51.380;10.326;2024-03-08T09:01:44;20.52;;;8.95;;
59880;SDS011;45751;51.380;10.326;2024-03-08T09:04:13;17.55;;;8.13;;
59880;SDS011;45751;51.380;10.326;2024-03-08T09:06:39;18.88;;;9.32;;
59880;SDS011;45751;51.380;10.326;2024-03-08T09:09:09;20.35;;;9.43;;
59880;SDS011;45751;51.380;10.326;2024-03-08T09:11:36;21.67;;;8.52;;
59880;SDS011;45751;51.380;10.326;2024-03-08T09:14:07;19.70;;;8.05;;
59880;SDS011;45751;51.380;10.326;2024-03-08T09:16:34;17.25;;;8.25;;
59880;SDS011;45751;51.380;10.326;2024-03-08T09:18:59;19.50;;;8.55;;
59880;SDS011;45751;51.380;10.326;2024-03-08T09:21:25;16.98;;;8.75;;
59880;SDS011;45751;51.380;10.326;2024-03-08T09:23:52;24.27;;;10.05;;
59880;SDS011;45751;51.380;10.326;2024-03-08T09:26:18;15.75;;;9.38;;
59880;SDS011;45751;51.380;10.326;2024-03-08T09:28:44;18.38;;;8.52;;
59880;SDS011;45751;51.380;10.326;2024-03-08T09:31:11;22.92;;;8.48;;
59880;SDS011;45751;51.380;10.326;2024-03-08T09:33:37;22.20;;;12.13;;
59880;SDS011;45751;51.380;10.326;2024-03-08T09:36:05;17.20;;;8.75;;
59880;SDS011;45751;51.380;10.326;2024-03-08T09:38:32;17.58;;;8.80;;
59880;SDS011;45751;51.380;10.326;2024-03-08T09:40:59;19.35;;;8.80;;
59880;SDS011;45751;51.380;10.326;2024-03-08T09:43:27;21.75;;;8.70;;
59880;SDS011;45751;51.380;10.326;2024-03-08T09:45:53;21.77;;;9.05;;
59880;SDS011;45751;51.380;10.326;2024-03-08T09:48:20;24.40;;;10.25;;
59880;SDS011;45751;51.380;10.326;2024-03-08T09:50:48;17.73;;;7.43;;
59880;SDS011;45751;51.380;10.326;2024-03-08T09:53:14;20.52;;;8.90;;
59880;SDS011;45751;51.380;10.326;2024-03-08T09:55:41;17.63;;;9.30;;
59880;SDS011;45751;51.380;10.326;2024-03-08T09:58:10;17.63;;;8.93;;
59880;SDS011;45751;51.380;10.326;2024-03-08T10:00:46;19.70;;;8.50;;
59880;SDS011;45751;51.380;10.326;2024-03-08T10:03:12;17.52;;;8.15;;
59880;SDS011;45751;51.380;10.326;2024-03-08T10:05:40;21.77;;;7.22;;
59880;SDS011;45751;51.380;10.326;2024-03-08T10:08:06;19.40;;;9.82;;
59880;SDS011;45751;51.380;10.326;2024-03-08T10:10:34;17.77;;;8.02;;
59880;SDS011;45751;51.380;10.326;2024-03-08T10:13:00;24.02;;;11.60;;
59880;SDS011;45751;51.380;10.326;2024-03-08T10:15:29;26.10;;;10.95;;
59880;SDS011;45751;51.380;10.326;2024-03-08T10:17:55;23.95;;;10.13;;
59880;SDS011;45751;51.380;10.326;2024-03-08T10:20:22;21.48;;;10.63;;
59880;SDS011;45751;51.380;10.326;2024-03-08T10:22:49;19.95;;;8.23;;
59880;SDS011;45751;51.380;10.326;2024-03-08T10:25:15;16.95;;;7.72;;
59880;SDS011;45751;51.380;10.326;2024-03-08T10:27:40;14.18;;;7.63;;
59880;SDS011;45751;51.380;10.326;2024-03-08T10:30:14;16.90;;;6.85;;
59880;SDS011;45751;51.380;10.326;2024-03-08T10:32:41;21.90;;;7.78;;
59880;SDS011;45751;51.380;10.326;2024-03-08T10:35:07;20.40;;;7.90;;
59880;SDS011;45751;51.380;10.326;2024-03-08T10:37:34;19.10;;;8.82;;
59880;SDS011;45751;51.380;10.326;2024-03-08T10:40:08;19.85;;;7.95;;
59880;SDS011;45751;51.380;10.326;2024-03-08T10:42:47;21.60;;;8.10;;
59880;SDS011;45751;51.380;10.326;2024-03-08T10:45:23;16.92;;;7.75;;
59880;SDS011;45751;51.380;10.326;2024-03-08T10:48:03;19.70;;;9.27;;
59880;SDS011;45751;51.380;10.326;2024-03-08T10:50:40;21.45;;;9.07;;
59880;SDS011;45751;51.380;10.326;2024-03-08T10:53:07;21.90;;;9.43;;
59880;SDS011;45751;51.380;10.326;2024-03-08T10:55:36;16.50;;;9.00;;
59880;SDS011;45751;51.380;10.326;2024-03-08T10:58:04;18.17;;;9.20;;
59880;SDS011;45751;51.380;10.326;2024-03-08T11:00:31;20.67;;;9.85;;
59880;SDS011;45751;51.380;10.326;2024-03-08T11:02:57;21.38;;;10.98;;
59880;SDS011;45751;51.380;10.326;2024-03-08T11:08:08;19.27;;;10.35;;
59880;SDS011;45751;51.380;10.326;2024-03-08T11:16:12;22.85;;;11.88;;
59880;SDS011;45751;51.380;10.326;2024-03-08T11:21:30;21.80;;;10.27;;
59880;SDS011;45751;51.380;10.326;2024-03-08T11:24:03;28.02;;;11.45;;
59880;SDS011;45751;51.380;10.326;2024-03-08T11:26:33;25.42;;;10.02;;
59880;SDS011;45751;51.380;10.326;2024-03-08T11:32:15;19.77;;;9.65;;
59880;SDS011;45751;51.380;10.326;2024-03-08T11:34:46;21.55;;;9.85;;
59880;SDS011;45751;51.380;10.326;2024-03-08T11:37:15;21.25;;;10.43;;
59880;SDS011;45751;51.380;10.326;2024-03-08T11:39:53;17.77;;;8.82;;
59880;SDS011;45751;51.380;10.326;2024-03-08T11:42:25;21.00;;;9.20;;
59880;SDS011;45751;51.380;10.326;2024-03-08T11:44:53;25.00;;;11.15;;
59880;SDS011;45751;51.380;10.326;2024-03-08T11:47:20;26.85;;;13.73;;
59880;SDS011;45751;51.380;10.326;2024-03-08T11:49:46;26.73;;;11.88;;
59880;SDS011;45751;51.380;10.326;2024-03-08T11:52:17;23.15;;;11.63;;
59880;SDS011;45751;51.380;10.326;2024-03-08T11:54:53;22.20;;;10.82;;
59880;SDS011;45751;51.380;10.326;2024-03-08T11:57:22;21.17;;;9.25;;
59880;SDS011;45751;51.380;10.326;2024-03-08T11:59:51;24.00;;;11.50;;
59880;SDS011;45751;51.380;10.326;2024-03-08T12:02:18;23.00;;;11.30;;
59880;SDS011;45751;51.380;10.326;2024-03-08T12:04:44;26.90;;;12.15;;
59880;SDS011;45751;51.380;10.326;2024-03-08T12:07:11;25.85;;;10.88;;
59880;SDS011;45751;51.380;10.326;2024-03-08T12:09:38;23.30;;;10.55;;
59880;SDS011;45751;51.380;10.326;2024-03-08T12:12:03;22.55;;;11.23;;
59880;SDS011;45751;51.380;10.326;2024-03-08T12:14:36;30.20;;;12.70;;
59880;SDS011;45751;51.380;10.326;2024-03-08T12:17:03;23.52;;;11.88;;
59880;SDS011;45751;51.380;10.326;2024-03-08T12:19:30;28.90;;;11.18;;
59880;SDS011;45751;51.380;10.326;2024-03-08T12:21:56;25.52;;;12.15;;
59880;SDS011;45751;51.380;10.326;2024-03-08T12:24:22;20.33;;;10.25;;
59880;SDS011;45751;51.380;10.326;2024-03-08T12:26:54;24.55;;;12.70;;
59880;SDS011;45751;51.380;10.326;2024-03-08T12:29:25;27.23;;;11.43;;
59880;SDS011;45751;51.380;10.326;2024-03-08T12:31:53;20.35;;;9.88;;
59880;SDS011;45751;51.380;10.326;2024-03-08T12:34:20;37.03;;;15.68;;
59880;SDS011;45751;51.380;10.326;2024-03-08T12:36:47;30.70;;;13.70;;
59880;SDS011;45751;51.380;10.326;2024-03-08T12:39:17;22.02;;;11.40;;
59880;SDS011;45751;51.380;10.326;2024-03-08T12:41:47;26.20;;;11.90;;
59880;SDS011;45751;51.380;10.326;2024-03-08T12:44:17;24.33;;;10.75;;
59880;SDS011;45751;51.380;10.326;2024-03-08T12:46:44;25.25;;;11.88;;
59880;SDS011;45751;51.380;10.326;2024-03-08T12:49:10;24.90;;;10.43;;
59880;SDS011;45751;51.380;10.326;2024-03-08T12:51:37;23.00;;;10.35;;
59880;SDS011;45751;51.380;10.326;2024-03-08T12:54:04;35.22;;;14.40;;
59880;SDS011;45751;51.380;10.326;2024-03-08T12:56:32;22.33;;;10.65;;
59880;SDS011;45751;51.380;10.326;2024-03-08T12:58:59;29.77;;;13.25;;
59880;SDS011;45751;51.380;10.326;2024-03-08T13:01:26;23.85;;;10.23;;
59880;SDS011;45751;51.380;10.326;2024-03-08T13:03:55;25.05;;;12.85;;
59880;SDS011;45751;51.380;10.326;2024-03-08T13:06:21;24.60;;;12.30;;
59880;SDS011;45751;51.380;10.326;2024-03-08T13:08:52;30.33;;;12.23;;
59880;SDS011;45751;51.380;10.326;2024-03-08T13:11:19;25.60;;;11.52;;
59880;SDS011;45751;51.380;10.326;2024-03-08T13:13:45;26.00;;;13.38;;
59880;SDS011;45751;51.380;10.326;2024-03-08T13:16:12;27.15;;;11.02;;
59880;SDS011;45751;51.380;10.326;2024-03-08T13:18:40;28.02;;;11.63;;
59880;SDS011;45751;51.380;10.326;2024-03-08T13:21:09;24.88;;;11.80;;
59880;SDS011;45751;51.380;10.326;2024-03-08T13:23:37;27.23;;;12.30;;
59880;SDS011;45751;51.380;10.326;2024-03-08T13:26:09;27.85;;;10.63;;
59880;SDS011;45751;51.380;10.326;2024-03-08T13:31:11;31.02;;;12.85;;
59880;SDS011;45751;51.380;10.326;2024-03-08T13:33:37;25.38;;;12.68;;
59880;SDS011;45751;51.380;10.326;2024-03-08T13:36:10;29.00;;;12.38;;
59880;SDS011;45751;51.380;10.326;2024-03-08T13:41:09;25.13;;;12.48;;
59880;SDS011;45751;51.380;10.326;2024-03-08T13:46:05;23.60;;;10.73;;
59880;SDS011;45751;51.380;10.326;2024-03-08T13:48:32;27.00;;;13.02;;
59880;SDS011;45751;51.380;10.326;2024-03-08T13:50:59;24.48;;;11.35;;
59880;SDS011;45751;51.380;10.326;2024-03-08T13:53:25;29.17;;;12.38;;
59880;SDS011;45751;51.380;10.326;2024-03-08T13:55:51;23.55;;;11.60;;
59880;SDS011;45751;51.380;10.326;2024-03-08T13:58:17;24.15;;;11.38;;
59880;SDS011;45751;51.380;10.326;2024-03-08T14:00:45;27.50;;;11.50;;
59880;SDS011;45751;51.380;10.326;2024-03-08T14:03:13;25.42;;;11.40;;
59880;SDS011;45751;51.380;10.326;2024-03-08T14:05:39;26.67;;;11.25;;
59880;SDS011;45751;51.380;10.326;2024-03-08T14:08:06;30.23;;;11.95;;
59880;SDS011;45751;51.380;10.326;2024-03-08T14:10:33;23.63;;;11.38;;
59880;SDS011;45751;51.380;10.326;2024-03-08T14:12:59;26.20;;;11.63;;
59880;SDS011;45751;51.380;10.326;2024-03-08T14:15:27;24.50;;;11.25;;
59880;SDS011;45751;51.380;10.326;2024-03-08T14:17:54;24.55;;;11.40;;
59880;SDS011;45751;51.380;10.326;2024-03-08T14:20:21;32.10;;;12.25;;
59880;SDS011;45751;51.380;10.326;2024-03-08T14:22:51;24.63;;;10.48;;
59880;SDS011;45751;51.380;10.326;2024-03-08T14:25:17;29.50;;;12.63;;
59880;SDS011;45751;51.380;10.326;2024-03-08T14:27:44;28.08;;;13.45;;
59880;SDS011;45751;51.380;10.326;2024-03-08T14:30:11;26.20;;;12.02;;
59880;SDS011;45751;51.380;10.326;2024-03-08T14:32:37;24.05;;;10.38;;
59880;SDS011;45751;51.380;10.326;2024-03-08T14:35:04;23.00;;;10.85;;
59880;SDS011;45751;51.380;10.326;2024-03-08T14:37:31;26.88;;;12.52;;
59880;SDS011;45751;51.380;10.326;2024-03-08T14:39:56;27.95;;;11.05;;
59880;SDS011;45751;51.380;10.326;2024-03-08T14:42:22;25.50;;;11.15;;